LFRG

Deauville-Saint-Gatien Airport

Deauville, France
TAF LFRG 181100Z 1812/1821 28010KT 9999 BKN018 TEMPO 1812/1813 BKN012
Issued Valid From Valid To
Jun-18 @ 11:00 UTC
(2 hours ago)
Jun-18 @ 12:00 UTC
(an hour ago)
Jun-18 @ 21:00 UTC
(in 8 hours)
Jun-18 @ 12:00 to Jun-18 @ 21:00
TAF LFRG 181100Z 1812/1821 28010KT 9999 BKN018
Wind Visibility Clouds
280° at 10 knots 10,000+ meters
  • Broken at 1,800' AGL
Expired Click to View Jun-18 @ 12:00 to Jun-18 @ 13:00
TEMPO 1812/1813 BKN012
Clouds
  • Broken at 1,200' AGL
TAF LFRG 181100Z 1812/1821 28010KT 9999 BKN018 TEMPO 1812/1813 BKN012
Issued Jun-18 @ 11:00 UTC
(2 hours ago)
Valid From Jun-18 @ 12:00 UTC
(an hour ago)
Valid To Jun-18 @ 21:00 UTC
(in 8 hours)
Jun-18 @ 12:00 - Jun-18 @ 21:00
Wind Visibility
280° at 10 knots 10,000+ meters
Clouds
  • Broken at 1,800' AGL
Jun-18 @ 12:00 - Jun-18 @ 13:00
Clouds
  • Broken at 1,200' AGL